Arabi, Georgia
Current Conditions -  °F | °C
As of 3:35 PM on Tuesday 21 Oct 2014 (Local Time) from KCKF Reporting Station
Clear Clear  
Wind Chill: 27°   Ceiling: Unl
Heat Index: 27°   Visibility: 10mi
Dew Point: 11°   Wind: 8mph
Humidity: 36%   Direction: 290°WNW
Pressure: 29.95"   Gusts: NA
Location:  31.83°N, 83.74°W
Report Text: KCKF 211935Z AUTO 29007KT 260V320 10SM CLR 27/11 A2995 RMK AO2 T02700109
Loading
Personal Weather Stations






























Interactive Weather Map
Tropical Storm Tracking
New forecast layout! Learn more

10-Day Weather Forecast

Advertisements
Track Severe Weather on mobile